Time;durP1;ratioP1;P1;durP2;ratioP2;P2;SDS_P1;SDS_P2;PMS_P1;PMS_P2;Temp;Humidity;BMP_temperature;BMP_pressure;BME280_temperature;BME280_humidity;BME280_pressure;Samples;Min_cycle;Max_cycle;Signal;HPM_P1;HPM_P2
2022/05/27 00:01:26;;;;;;;21.10;5.00;;;;;;;;;;5074139;28;20041;-31
2022/05/27 00:03:52;;;;;;;19.52;5.20;;;;;;;;;;5072122;28;20053;-32
2022/05/27 00:06:18;;;;;;;20.48;4.57;;;;;;;;;;5058644;28;20049;-32
2022/05/27 00:08:44;;;;;;;19.27;4.13;;;;;;;;;;5073349;28;20050;-31
2022/05/27 00:11:12;;;;;;;21.08;5.00;;;;;;;;;;5066561;28;20395;-31
2022/05/27 00:13:38;;;;;;;17.45;4.13;;;;;;;;;;5073434;28;20059;-31
2022/05/27 00:16:04;;;;;;;17.10;4.25;;;;;;;;;;5066154;28;20049;-31
2022/05/27 00:18:31;;;;;;;19.73;4.22;;;;;;;;;;5052216;28;20037;-30
2022/05/27 00:20:57;;;;;;;18.98;4.65;;;;;;;;;;5070600;28;20053;-32
2022/05/27 00:23:23;;;;;;;24.75;5.05;;;;;;;;;;5073278;28;20044;-31
2022/05/27 00:25:49;;;;;;;20.35;4.00;;;;;;;;;;5055043;28;20501;-31
2022/05/27 00:28:16;;;;;;;20.45;5.07;;;;;;;;;;5056363;28;20410;-30
2022/05/27 00:30:42;;;;;;;21.85;4.47;;;;;;;;;;5072598;28;20057;-30
2022/05/27 00:33:08;;;;;;;18.75;4.70;;;;;;;;;;5072980;28;20090;-31
2022/05/27 00:35:34;;;;;;;28.50;5.18;;;;;;;;;;5072958;28;20048;-30
2022/05/27 00:38:01;;;;;;;27.17;5.07;;;;;;;;;;5059973;28;20041;-30
2022/05/27 00:40:34;;;;;;;18.00;3.90;;;;;;;;;;5067010;28;20063;-31
2022/05/27 00:43:00;;;;;;;18.35;4.28;;;;;;;;;;5052700;28;20052;-29
2022/05/27 00:45:27;;;;;;;25.05;5.22;;;;;;;;;;5055720;28;20063;-30
2022/05/27 00:47:54;;;;;;;20.88;4.88;;;;;;;;;;5053817;28;20051;-30
2022/05/27 00:50:25;;;;;;;20.15;3.90;;;;;;;;;;5058781;28;20078;-30
2022/05/27 00:52:51;;;;;;;22.95;4.30;;;;;;;;;;5072022;28;20488;-29
2022/05/27 00:55:19;;;;;;;24.55;4.82;;;;;;;;;;5073248;28;20053;-29
2022/05/27 00:57:48;;;;;;;18.70;4.10;;;;;;;;;;5056624;28;20060;-29
2022/05/27 01:00:16;;;;;;;18.60;5.20;;;;;;;;;;5056087;28;20040;-30
2022/05/27 01:02:43;;;;;;;25.33;4.97;;;;;;;;;;5062858;28;20044;-29
2022/05/27 01:05:11;;;;;;;16.98;4.53;;;;;;;;;;5070715;28;20055;-30
2022/05/27 01:07:37;;;;;;;20.42;5.00;;;;;;;;;;5051320;28;20067;-30
2022/05/27 01:10:05;;;;;;;19.20;3.63;;;;;;;;;;5073005;28;20056;-29
2022/05/27 01:12:41;;;;;;;16.55;4.63;;;;;;;;;;5067215;28;20040;-30
2022/05/27 01:15:23;;;;;;;21.75;6.53;;;;;;;;;;5055874;28;20544;-28
2022/05/27 01:17:58;;;;;;;20.52;4.18;;;;;;;;;;5054501;28;20048;-30
2022/05/27 01:20:30;;;;;;;16.20;4.15;;;;;;;;;;5053975;28;20063;-29
2022/05/27 01:23:14;;;;;;;20.73;4.68;;;;;;;;;;5054491;28;20379;-29
2022/05/27 01:25:59;;;;;;;15.68;3.33;;;;;;;;;;5067156;28;20041;-29
2022/05/27 01:28:34;;;;;;;24.08;5.28;;;;;;;;;;5065989;28;20056;-29
2022/05/27 01:31:05;;;;;;;22.48;4.80;;;;;;;;;;5058005;28;20531;-29
2022/05/27 01:33:39;;;;;;;20.73;4.03;;;;;;;;;;5056232;28;20053;-29
2022/05/27 01:36:24;;;;;;;18.08;3.85;;;;;;;;;;5063509;28;20438;-28
2022/05/27 01:39:11;;;;;;;20.17;4.03;;;;;;;;;;5065957;28;20045;-29
2022/05/27 01:41:46;;;;;;;19.10;4.70;;;;;;;;;;5053721;28;20044;-29
2022/05/27 01:44:19;;;;;;;19.30;3.78;;;;;;;;;;5054787;28;21743;-29
2022/05/27 01:46:46;;;;;;;15.23;3.35;;;;;;;;;;5051090;28;20063;-29
2022/05/27 01:49:32;;;;;;;20.75;4.28;;;;;;;;;;5065583;28;20098;-29
2022/05/27 01:52:17;;;;;;;14.52;3.47;;;;;;;;;;5057199;28;20099;-29
2022/05/27 01:54:43;;;;;;;17.67;4.00;;;;;;;;;;5064346;28;20494;-29
2022/05/27 01:57:15;;;;;;;16.70;4.10;;;;;;;;;;5076907;28;20438;-29
2022/05/27 01:59:52;;;;;;;13.85;3.83;;;;;;;;;;5077255;28;20049;-29
2022/05/27 02:02:20;;;;;;;21.95;4.88;;;;;;;;;;5064755;28;20075;-29
2022/05/27 02:04:48;;;;;;;17.98;3.95;;;;;;;;;;5060219;28;20057;-28
2022/05/27 02:07:19;;;;;;;19.35;4.45;;;;;;;;;;5068073;28;20040;-28
2022/05/27 02:09:48;;;;;;;15.63;3.67;;;;;;;;;;5077016;28;20410;-30
2022/05/27 02:12:21;;;;;;;21.00;4.72;;;;;;;;;;5062306;28;20051;-29
2022/05/27 02:14:52;;;;;;;19.30;4.10;;;;;;;;;;5063351;28;20048;-29
2022/05/27 02:17:31;;;;;;;15.27;3.60;;;;;;;;;;5075901;28;20051;-29
2022/05/27 02:19:59;;;;;;;15.50;3.55;;;;;;;;;;5073523;28;20076;-28
2022/05/27 02:22:27;;;;;;;17.73;3.40;;;;;;;;;;5074636;28;20109;-29
2022/05/27 02:25:00;;;;;;;15.18;2.88;;;;;;;;;;5059808;28;20049;-29
2022/05/27 02:27:36;;;;;;;16.40;2.60;;;;;;;;;;5069316;28;20052;-29
2022/05/27 02:30:05;;;;;;;22.15;3.47;;;;;;;;;;5075677;28;20097;-28
2022/05/27 02:32:33;;;;;;;21.23;2.97;;;;;;;;;;5076102;28;20044;-29
2022/05/27 02:35:21;;;;;;;16.73;3.72;;;;;;;;;;5060225;28;20072;-29
2022/05/27 02:37:49;;;;;;;14.98;3.72;;;;;;;;;;5056561;28;20127;-29
2022/05/27 02:40:17;;;;;;;21.17;3.92;;;;;;;;;;5056998;28;20049;-28
2022/05/27 02:42:49;;;;;;;18.65;3.95;;;;;;;;;;5056932;28;20048;-30
2022/05/27 02:45:31;;;;;;;13.50;3.00;;;;;;;;;;5059490;28;20044;-28
2022/05/27 02:47:57;;;;;;;14.45;3.50;;;;;;;;;;5060337;28;20041;-30
2022/05/27 02:50:32;;;;;;;18.38;3.10;;;;;;;;;;5073174;28;20513;-29
2022/05/27 02:53:04;;;;;;;13.38;3.50;;;;;;;;;;5068742;28;20037;-29
2022/05/27 02:55:45;;;;;;;39.10;5.55;;;;;;;;;;5056091;28;20045;-29
2022/05/27 02:58:11;;;;;;;13.05;2.58;;;;;;;;;;5058559;28;20114;-28
2022/05/27 03:00:39;;;;;;;12.30;2.85;;;;;;;;;;5067676;28;20099;-29
2022/05/27 03:03:05;;;;;;;16.75;3.15;;;;;;;;;;5074527;28;20421;-28
2022/05/27 03:05:43;;;;;;;15.30;3.05;;;;;;;;;;5073572;28;20044;-28
2022/05/27 03:08:20;;;;;;;20.88;3.92;;;;;;;;;;5072495;28;20695;-29
2022/05/27 03:10:49;;;;;;;11.98;2.17;;;;;;;;;;5059066;28;20049;-29
2022/05/27 03:13:15;;;;;;;13.38;2.80;;;;;;;;;;5061695;28;20450;-29
2022/05/27 03:15:52;;;;;;;13.25;2.58;;;;;;;;;;5076091;28;20394;-28
2022/05/27 03:18:18;;;;;;;13.43;2.20;;;;;;;;;;5064187;28;20045;-29
2022/05/27 03:20:47;;;;;;;19.67;3.25;;;;;;;;;;5055946;28;20059;-29
2022/05/27 03:23:33;;;;;;;14.32;2.65;;;;;;;;;;5055558;28;20110;-28
2022/05/27 03:26:25;;;;;;;14.57;3.35;;;;;;;;;;5054646;28;20060;-29
2022/05/27 03:29:00;;;;;;;25.02;3.50;;;;;;;;;;5056671;28;20053;-28
2022/05/27 03:31:40;;;;;;;13.00;2.53;;;;;;;;;;5054918;28;20080;-28
2022/05/27 03:34:12;;;;;;;16.23;2.95;;;;;;;;;;5068045;28;20062;-29
2022/05/27 03:36:53;;;;;;;15.00;3.38;;;;;;;;;;5055303;28;20433;-29
2022/05/27 03:39:30;;;;;;;16.27;3.65;;;;;;;;;;5062938;28;20132;-28
2022/05/27 03:42:00;;;;;;;14.90;3.40;;;;;;;;;;5058182;28;20036;-28
2022/05/27 03:44:29;;;;;;;14.23;3.45;;;;;;;;;;5075704;28;20040;-28
2022/05/27 03:46:57;;;;;;;18.73;4.50;;;;;;;;;;5071422;28;20048;-28
2022/05/27 03:49:23;;;;;;;27.02;4.05;;;;;;;;;;5062963;28;20045;-28
2022/05/27 03:52:11;;;;;;;16.50;3.83;;;;;;;;;;5065403;28;20124;-29
2022/05/27 03:54:37;;;;;;;12.75;3.60;;;;;;;;;;5075011;28;20047;-28
2022/05/27 03:57:04;;;;;;;13.48;3.22;;;;;;;;;;5074963;28;20102;-28
2022/05/27 03:59:30;;;;;;;21.10;3.72;;;;;;;;;;5067590;28;20056;-29
2022/05/27 04:01:56;;;;;;;15.95;3.67;;;;;;;;;;5053761;28;20131;-28
2022/05/27 04:04:26;;;;;;;17.00;3.42;;;;;;;;;;5069136;28;20053;-29
2022/05/27 04:06:52;;;;;;;13.02;3.20;;;;;;;;;;5072166;28;20048;-29
2022/05/27 04:09:20;;;;;;;19.35;3.38;;;;;;;;;;5061378;28;20041;-28
2022/05/27 04:11:46;;;;;;;16.58;3.42;;;;;;;;;;5065559;28;20053;-28
2022/05/27 04:14:13;;;;;;;11.50;2.83;;;;;;;;;;5072813;28;20505;-28
2022/05/27 04:16:39;;;;;;;12.27;3.00;;;;;;;;;;5074453;28;20178;-28
2022/05/27 04:19:05;;;;;;;12.88;2.50;;;;;;;;;;5064891;28;20084;-28
2022/05/27 04:21:32;;;;;;;16.27;3.83;;;;;;;;;;5057492;28;20049;-28
2022/05/27 04:23:58;;;;;;;20.98;3.88;;;;;;;;;;5066067;28;20041;-28
2022/05/27 04:26:25;;;;;;;17.60;2.97;;;;;;;;;;5057128;28;20053;-28
2022/05/27 04:28:51;;;;;;;18.85;3.38;;;;;;;;;;5060434;28;20045;-28
2022/05/27 04:31:17;;;;;;;17.48;2.88;;;;;;;;;;5054647;28;20079;-28
2022/05/27 04:33:44;;;;;;;15.57;3.70;;;;;;;;;;5052852;28;20560;-28
2022/05/27 04:36:11;;;;;;;14.70;2.95;;;;;;;;;;5054494;28;20465;-29
2022/05/27 04:38:38;;;;;;;14.88;3.85;;;;;;;;;;5053991;28;20048;-27
2022/05/27 04:41:04;;;;;;;12.43;4.47;;;;;;;;;;5066585;28;20055;-27
2022/05/27 04:43:30;;;;;;;21.17;4.32;;;;;;;;;;5059614;28;20045;-28
2022/05/27 04:45:57;;;;;;;16.08;2.63;;;;;;;;;;5052866;28;20052;-27
2022/05/27 04:48:23;;;;;;;16.17;2.75;;;;;;;;;;5061467;28;20037;-28
2022/05/27 04:50:49;;;;;;;18.95;3.00;;;;;;;;;;5051573;28;20516;-27
2022/05/27 04:53:15;;;;;;;15.05;2.80;;;;;;;;;;5062632;28;20180;-28
2022/05/27 04:55:42;;;;;;;16.02;2.88;;;;;;;;;;5062863;28;20048;-27
2022/05/27 04:58:11;;;;;;;13.07;2.50;;;;;;;;;;5073924;28;20094;-28
2022/05/27 05:00:38;;;;;;;13.75;3.13;;;;;;;;;;5071713;28;20066;-28
2022/05/27 05:03:05;;;;;;;13.77;2.45;;;;;;;;;;5055427;28;20044;-27
2022/05/27 05:05:32;;;;;;;11.93;2.30;;;;;;;;;;5061399;28;20052;-28
2022/05/27 05:08:03;;;;;;;16.17;2.65;;;;;;;;;;5072687;28;20049;-27
2022/05/27 05:10:30;;;;;;;13.93;2.63;;;;;;;;;;5066605;28;20048;-27
2022/05/27 05:12:56;;;;;;;14.52;3.40;;;;;;;;;;5060517;28;20094;-27
2022/05/27 05:15:23;;;;;;;15.48;3.10;;;;;;;;;;5071908;28;20444;-27
2022/05/27 05:17:49;;;;;;;14.05;3.13;;;;;;;;;;5065220;28;20107;-27
2022/05/27 05:20:16;;;;;;;15.77;3.25;;;;;;;;;;5056011;28;20048;-27
2022/05/27 05:22:42;;;;;;;16.63;3.28;;;;;;;;;;5068188;28;20494;-27
2022/05/27 05:25:10;;;;;;;15.70;2.42;;;;;;;;;;5073061;28;20116;-27
2022/05/27 05:27:38;;;;;;;12.35;2.95;;;;;;;;;;5069987;28;20044;-27
2022/05/27 05:30:05;;;;;;;9.20;2.28;;;;;;;;;;5053652;28;20052;-27
2022/05/27 05:32:32;;;;;;;10.50;2.40;;;;;;;;;;5054266;28;20041;-27
2022/05/27 05:34:59;;;;;;;13.77;2.78;;;;;;;;;;5073548;28;20043;-27
2022/05/27 05:37:26;;;;;;;17.80;2.50;;;12.10;99.90;;;;;;5070683;28;20494;-27
2022/05/27 05:39:52;;;;;;;16.45;3.72;;;12.50;99.90;;;;;;5063877;28;20131;-27
2022/05/27 05:42:17;;;;;;;9.05;2.30;;;12.60;1.00;;;;;;5073160;28;20135;-27
2022/05/27 05:44:43;;;;;;;12.25;2.85;;;12.70;1.00;;;;;;5058105;28;20120;-26
2022/05/27 05:47:09;;;;;;;15.18;2.67;;;13.00;99.90;;;;;;5052211;28;20044;-26
2022/05/27 05:49:35;;;;;;;18.50;3.25;;;13.30;99.90;;;;;;5062867;28;20056;-26
2022/05/27 05:52:01;;;;;;;16.67;2.78;;;13.50;99.90;;;;;;5051004;28;20037;-26
2022/05/27 05:54:28;;;;;;;15.93;3.35;;;13.70;99.90;;;;;;5053809;28;20120;-26
2022/05/27 05:56:54;;;;;;;18.40;2.78;;;13.80;99.90;;;;;;5071011;28;20041;-26
2022/05/27 05:59:22;;;;;;;20.90;3.60;;;13.70;95.50;;;;;;5073215;28;20106;-27
2022/05/27 06:01:48;;;;;;;18.50;3.65;;;13.60;37.80;;;;;;5032464;28;20106;-26
2022/05/27 06:04:14;;;;;;;13.52;2.25;;;13.50;1.00;;;;;;5054361;28;20489;-26
2022/05/27 06:06:40;;;;;;;15.73;3.58;;;13.60;1.00;;;;;;5068529;28;20045;-26
2022/05/27 06:09:09;;;;;;;16.65;3.47;;;13.90;8.60;;;;;;5053723;28;20041;-26
2022/05/27 06:11:38;;;;;;;15.07;3.85;;;13.80;99.90;;;;;;5062229;28;20482;-26
2022/05/27 06:14:05;;;;;;;15.77;3.90;;;14.20;1.00;;;;;;5063235;28;20037;-27
2022/05/27 06:16:30;;;;;;;12.68;3.28;;;14.10;99.90;;;;;;5073130;28;20071;-26
2022/05/27 06:18:56;;;;;;;14.75;2.33;;;13.90;99.90;;;;;;5060887;28;20479;-26
2022/05/27 06:21:22;;;;;;;9.32;2.15;;;13.90;99.90;;;;;;5058749;28;20044;-26
2022/05/27 06:23:47;;;;;;;16.00;2.95;;;13.90;99.90;;;;;;5046547;28;20375;-27
2022/05/27 06:26:13;;;;;;;11.05;2.63;;;14.00;99.90;;;;;;5065339;28;20044;-26
2022/05/27 06:34:24;;;;;;;15.88;2.85;;;13.90;99.90;;;;;;5058257;28;20091;-26
2022/05/27 06:37:00;;;;;;;12.00;2.70;;;14.00;99.90;;;;;;5052479;28;20045;-26
2022/05/27 06:39:27;;;;;;;17.58;3.42;;;13.90;99.90;;;;;;5055640;28;20132;-26
2022/05/27 06:41:53;;;;;;;15.30;3.20;;;14.10;99.90;;;;;;5071364;28;20049;-26
2022/05/27 06:44:19;;;;;;;14.52;2.78;;;14.20;99.90;;;;;;5076873;28;20044;-27
2022/05/27 06:46:46;;;;;;;17.33;3.22;;;14.20;1.00;;;;;;5064099;28;20518;-26
2022/05/27 06:49:12;;;;;;;22.17;3.40;;;14.50;99.90;;;;;;5060450;28;20036;-26
2022/05/27 06:51:39;;;;;;;14.90;2.88;;;14.70;1.00;;;;;;5056025;28;20048;-26
2022/05/27 06:54:06;;;;;;;16.27;3.70;;;15.00;20.10;;;;;;5059846;28;20037;-26
2022/05/27 06:56:36;;;;;;;12.77;3.47;;;15.00;48.40;;;;;;5060037;28;20056;-26
2022/05/27 06:59:03;;;;;;;17.67;3.08;;;14.90;99.90;;;;;;5061913;28;20041;-26
2022/05/27 07:01:29;;;;;;;14.30;2.47;;;14.70;1.00;;;;;;5056811;28;20048;-26
2022/05/27 07:03:55;;;;;;;16.58;2.58;;;14.60;15.80;;;;;;5056172;28;20765;-27
2022/05/27 07:06:23;;;;;;;21.48;2.97;;;14.80;9.50;;;;;;5057622;28;20053;-27
2022/05/27 07:08:49;;;;;;;10.68;2.67;;;15.30;99.90;;;;;;5055260;28;20135;-26
2022/05/27 07:11:15;;;;;;;13.93;2.75;;;;;;;;;;5058377;28;20526;-26
2022/05/27 07:13:41;;;;;;;14.95;2.47;;;;;;;;;;5041394;28;20041;-26
2022/05/27 07:16:07;;;;;;;14.32;3.10;;;;;;;;;;5068870;28;20041;-26
2022/05/27 07:18:33;;;;;;;15.80;3.35;;;;;;;;;;5062584;28;20048;-26
2022/05/27 07:21:00;;;;;;;15.82;3.50;;;;;;;;;;5061019;28;20486;-26
2022/05/27 07:23:26;;;;;;;12.20;2.05;;;;;;;;;;5058862;28;20041;-27
2022/05/27 07:25:54;;;;;;;15.63;3.15;;;;;;;;;;5055925;28;20037;-26
2022/05/27 07:28:20;;;;;;;17.42;3.42;;;;;;;;;;5062660;28;20080;-26
2022/05/27 07:30:46;;;;;;;14.50;3.33;;;;;;;;;;5064639;28;20131;-27
2022/05/27 07:33:12;;;;;;;19.38;3.03;;;;;;;;;;5063669;28;20048;-26
2022/05/27 07:35:38;;;;;;;14.02;3.35;;;;;;;;;;5058310;28;20036;-27
2022/05/27 07:38:05;;;;;;;19.48;3.70;;;;;;;;;;5059593;28;20101;-27
2022/05/27 07:40:31;;;;;;;13.02;3.15;;;;;;;;;;5057885;28;20128;-26
2022/05/27 07:42:57;;;;;;;14.05;3.08;;;;;;;;;;5071687;28;20075;-27
2022/05/27 07:45:27;;;;;;;15.20;2.85;;;;;;;;;;5075096;28;20041;-26
2022/05/27 07:47:54;;;;;;;17.13;3.10;;;;;;;;;;5074864;28;20469;-26
2022/05/27 07:50:20;;;;;;;11.15;2.78;;;;;;;;;;5073772;28;20048;-26
2022/05/27 07:52:50;;;;;;;15.27;3.50;;;;;;;;;;5074172;28;20048;-27
2022/05/27 07:55:16;;;;;;;15.65;3.20;;;;;;;;;;5055517;28;20103;-26
2022/05/27 07:57:43;;;;;;;13.70;2.65;;;;;;;;;;5065369;28;20045;-26
2022/05/27 08:00:12;;;;;;;19.02;3.25;;;;;;;;;;5075003;28;20128;-26
2022/05/27 08:02:38;;;;;;;12.40;2.85;;;;;;;;;;5075424;28;20056;-26
2022/05/27 08:05:05;;;;;;;11.80;2.55;;;;;;;;;;5073463;28;20105;-26
2022/05/27 08:07:31;;;;;;;15.50;3.83;;;;;;;;;;5074809;28;20135;-26
2022/05/27 08:09:57;;;;;;;18.20;3.08;;;;;;;;;;5074800;28;20444;-26
2022/05/27 08:12:23;;;;;;;13.00;2.72;;;;;;;;;;5074772;28;20504;-26
2022/05/27 08:14:49;;;;;;;18.98;3.30;;;;;;;;;;5073637;28;20045;-27
2022/05/27 08:17:16;;;;;;;15.68;3.58;;;;;;;;;;5057272;28;20087;-26
2022/05/27 08:19:42;;;;;;;18.10;3.10;;;;;;;;;;5074534;28;20048;-27
2022/05/27 08:22:08;;;;;;;12.90;3.05;;;;;;;;;;5074483;28;20052;-26
2022/05/27 08:24:34;;;;;;;19.10;2.83;;;;;;;;;;5074448;28;20098;-26
2022/05/27 08:27:00;;;;;;;15.82;2.83;;;;;;;;;;5074708;28;20080;-27
2022/05/27 08:29:28;;;;;;;15.48;3.05;;;;;;;;;;5074045;28;20406;-27
2022/05/27 08:31:54;;;;;;;11.93;2.55;;;;;;;;;;5055254;28;20044;-26
2022/05/27 08:40:01;;;;;;;18.00;2.60;;;;;;;;;;5054615;28;20131;-27
2022/05/27 08:42:36;;;;;;;18.60;2.90;;;;;;;;;;5067226;28;20586;-26
2022/05/27 08:45:14;;;;;;;19.45;3.25;;;;;;;;;;5068177;28;20090;-26
2022/05/27 08:47:50;;;;;;;17.73;4.05;;;;;;;;;;5055597;28;20142;-27
2022/05/27 08:50:25;;;;;;;17.80;3.03;;;;;;;;;;5074032;28;20050;-26
2022/05/27 08:52:54;;;;;;;11.57;3.17;;;;;;;;;;5074085;28;20127;-26
2022/05/27 09:01:20;;;;;;;13.77;2.65;;;;;;;;;;5066053;28;20444;-26
2022/05/27 09:03:49;;;;;;;24.48;3.45;;;;;;;;;;5055985;28;20382;-27
2022/05/27 09:06:18;;;;;;;18.80;3.78;;;;;;;;;;5074001;28;20097;-26
2022/05/27 09:08:44;;;;;;;14.13;2.78;;;;;;;;;;5072858;28;20053;-26
2022/05/27 09:11:26;;;;;;;19.85;3.72;;;;;;;;;;5072668;28;20048;-26
2022/05/27 09:14:08;;;;;;;10.60;2.13;;;;;;;;;;5073863;28;20106;-26
2022/05/27 09:16:34;;;;;;;13.77;2.92;;;;;;;;;;5070714;28;20842;-26
2022/05/27 09:19:08;;;;;;;17.70;3.30;;;;;;;;;;5065968;28;20055;-26
2022/05/27 09:21:53;;;;;;;15.07;2.90;;;;;;;;;;5073775;28;20056;-26
2022/05/27 09:24:28;;;;;;;10.60;2.25;;;;;;;;;;5057244;28;20170;-27
2022/05/27 09:27:13;;;;;;;14.52;3.05;;;;;;;;;;5061507;28;20052;-26
2022/05/27 09:29:58;;;;;;;17.30;4.35;;;;;;;;;;5073630;28;20048;-26
2022/05/27 09:32:30;;;;;;;18.55;3.05;;;;;;;;;;5056998;28;20581;-26
2022/05/27 09:34:58;;;;;;;17.40;3.57;;;;;;;;;;5073545;28;20040;-26
2022/05/27 09:37:26;;;;;;;19.40;3.67;;;;;;;;;;5073507;28;20146;-27
2022/05/27 09:39:55;;;;;;;11.90;2.60;;;;;;;;;;5074056;28;20101;-26
2022/05/27 09:42:44;;;;;;;13.07;3.42;;;;;;;;;;5073454;28;20049;-27
2022/05/27 09:45:12;;;;;;;15.00;3.75;;;;;;;;;;5071599;28;20181;-26
2022/05/27 09:47:38;;;;;;;15.48;3.80;;;;;;;;;;5062805;28;20076;-27
2022/05/27 09:50:11;;;;;;;13.25;3.70;;;;;;;;;;5061123;28;20045;-27
2022/05/27 09:52:39;;;;;;;15.52;3.20;;;;;;;;;;5072703;28;20155;-27
2022/05/27 09:55:16;;;;;;;17.95;3.58;;;;;;;;;;5061804;28;20083;-26
2022/05/27 09:57:54;;;;;;;17.48;3.05;;;;;;;;;;5056482;28;20044;-26
2022/05/27 10:00:33;;;;;;;20.55;3.53;;;;;;;;;;5053473;28;20391;-26
2022/05/27 10:02:59;;;;;;;17.70;4.03;;;;;;;;;;5053673;28;20127;-26
2022/05/27 10:05:28;;;;;;;15.50;3.50;;;;;;;;;;5053678;28;20057;-26
2022/05/27 10:07:57;;;;;;;13.63;2.85;;;;;;;;;;5069508;28;20044;-26
2022/05/27 10:10:24;;;;;;;18.50;3.90;;;;;;;;;;5073169;28;20123;-27
2022/05/27 10:12:51;;;;;;;11.07;2.67;;;;;;;;;;5074566;28;20394;-26
2022/05/27 10:15:26;;;;;;;14.55;2.80;;;;;;;;;;5076391;28;20142;-26
2022/05/27 10:17:52;;;;;;;13.82;3.63;;;;;;;;;;5076920;28;20500;-27
2022/05/27 10:20:18;;;;;;;19.63;3.13;;;;;;;;;;5076849;28;20544;-26
2022/05/27 10:22:56;;;;;;;16.83;4.18;;;;;;;;;;5071389;28;20091;-26
2022/05/27 10:25:29;;;;;;;27.00;4.22;;;;;;;;;;5066855;28;20406;-27
2022/05/27 10:27:55;;;;;;;;;;;;;;;;;;5077162;28;20136;-27
2022/05/27 10:30:24;;;;;;;17.52;3.97;;;;;;;;;;5076644;28;20365;-27
2022/05/27 10:32:50;;;;;;;21.63;4.05;;;;;;;;;;5074801;28;20119;-26
2022/05/27 10:35:16;;;;;;;16.50;3.67;;;;;;;;;;5057864;28;20045;-26
2022/05/27 10:37:48;;;;;;;11.77;2.55;;;;;;;;;;5057359;28;20049;-26
2022/05/27 10:40:17;;;;;;;15.50;3.78;;;;;;;;;;5056945;28;20813;-26
2022/05/27 10:42:53;;;;;;;16.98;3.05;;;;;;;;;;5065064;28;20053;-26
2022/05/27 10:45:23;;;;;;;11.57;3.45;;;;;;;;;;5075228;28;20080;-26
2022/05/27 10:47:58;;;;;;;13.55;2.95;;;;;;;;;;5071986;28;20132;-26
2022/05/27 10:50:24;;;;;;;19.85;2.97;;;;;;;;;;5076361;28;20052;-26
2022/05/27 10:52:58;;;;;;;15.15;2.90;;;;;;;;;;5075626;28;20052;-26
2022/05/27 10:55:29;;;;;;;14.77;2.92;;;;;;;;;;5076339;28;20045;-26
2022/05/27 11:04:09;;;;;;;15.15;2.75;;;;;;;;;;5056162;28;20412;-26
2022/05/27 11:06:44;;;;;;;12.88;3.22;;;;;;;;;;5060509;28;20064;-26
2022/05/27 11:09:10;;;;;;;18.70;5.18;;;;;;;;;;5075964;28;20490;-26
2022/05/27 11:11:44;;;;;;;21.23;3.80;;;;;;;;;;5066999;28;20144;-26
2022/05/27 11:17:07;;;;;;;12.20;2.72;;;;;;;;;;5076373;28;20051;-27
2022/05/27 11:19:33;;;;;;;19.88;3.55;;;;;;;;;;5075692;28;20142;-26
2022/05/27 11:22:15;;;;;;;16.83;3.47;;;;;;;;;;5062806;28;20106;-26
2022/05/27 11:25:01;;;;;;;16.10;3.65;;;;;;;;;;5071861;28;20044;-27
2022/05/27 11:27:27;;;;;;;13.13;2.50;;;;;;;;;;5071552;28;20135;-27
2022/05/27 11:29:56;;;;;;;15.95;3.90;;;;;;;;;;5065157;28;20043;-27
2022/05/27 11:32:38;;;;;;;16.00;3.38;;;;;;;;;;5060541;28;20045;-26
2022/05/27 11:35:07;;;;;;;18.63;4.30;;;;;;;;;;5056885;28;20098;-26
2022/05/27 11:37:43;;;;;;;13.10;2.70;;;;;;;;;;5059432;28;20075;-26
2022/05/27 11:40:14;;;;;;;15.00;3.38;;;;;;;;;;5059789;28;20051;-27
2022/05/27 11:43:07;;;;;;;16.20;4.18;;;;;;;;;;5061900;28;20045;-26
2022/05/27 11:45:35;;;;;;;9.10;2.38;;;;;;;;;;5048717;28;20055;-26
2022/05/27 11:48:08;;;;;;;13.07;3.53;;;;;;;;;;5056423;28;20098;-26
2022/05/27 11:50:41;;;;;;;13.93;3.97;;;;;;;;;;5055931;28;20055;-26
2022/05/27 11:53:19;;;;;;;10.47;2.53;;;;;;;;;;5070412;28;20048;-26
2022/05/27 11:56:04;;;;;;;14.55;2.95;;;;;;;;;;5057412;28;20302;-25
2022/05/27 11:58:36;;;;;;;11.77;2.88;;;;;;;;;;5058087;28;20050;-26
2022/05/27 12:01:02;;;;;;;17.65;3.05;;;;;;;;;;5056928;28;20044;-25
2022/05/27 12:03:42;;;;;;;13.85;2.90;;;;;;;;;;5066995;28;20048;-26
2022/05/27 12:06:13;;;;;;;13.35;3.35;;;;;;;;;;5059861;28;20053;-26
2022/05/27 12:08:42;;;;;;;14.95;3.00;;;;;;;;;;5056789;28;20411;-25
2022/05/27 12:11:15;;;;;;;16.45;2.75;;;;;;;;;;5055439;28;20059;-26
2022/05/27 12:13:46;;;;;;;15.23;2.97;;;;;;;;;;5073023;28;20051;-25
2022/05/27 12:16:14;;;;;;;18.65;2.80;;;;;;;;;;5054336;28;20037;-26
2022/05/27 12:18:45;;;;;;;19.58;3.67;;;;;;;;;;5065228;28;20102;-26
2022/05/27 12:21:13;;;;;;;19.23;4.28;;;;;;;;;;5061714;28;20049;-26
2022/05/27 12:23:41;;;;;;;16.02;3.35;;;;;;;;;;5053484;28;20079;-26
2022/05/27 12:26:07;;;;;;;18.10;3.22;;;;;;;;;;5053142;28;20041;-26
2022/05/27 12:28:43;;;;;;;18.50;3.95;;;;;;;;;;5061923;28;20503;-28
2022/05/27 12:31:10;;;;;;;17.58;3.63;;;;;;;;;;5065038;28;20068;-28
2022/05/27 12:33:37;;;;;;;17.48;3.67;;;;;;;;;;5065278;28;20045;-28
2022/05/27 12:36:05;;;;;;;12.90;2.55;;;;;;;;;;5059341;28;20128;-27
2022/05/27 12:38:36;;;;;;;15.45;2.90;;;;;;;;;;5062460;28;20379;-26
2022/05/27 12:41:09;;;;;;;14.88;3.17;;;;;;;;;;5057867;28;20063;-26
2022/05/27 12:43:39;;;;;;;18.42;3.50;;;;;;;;;;5074192;28;20076;-25
2022/05/27 12:46:05;;;;;;;12.98;3.30;;;;;;;;;;5073583;28;20105;-26
2022/05/27 12:48:39;;;;;;;14.90;3.00;;;;;;;;;;5074098;28;20132;-26
2022/05/27 12:51:05;;;;;;;14.10;2.70;;;;;;;;;;5073981;28;20100;-26
2022/05/27 12:53:50;;;;;;;13.77;3.03;;;;;;;;;;5065079;28;20072;-26
2022/05/27 13:02:15;;;;;;;10.57;2.53;;;;;;;;;;5054396;28;20049;-26
2022/05/27 13:04:52;;;;;;;12.77;2.83;;;;;;;;;;5054058;28;20068;-26
2022/05/27 13:07:39;;;;;;;19.63;3.38;;;;;;;;;;5074725;28;20048;-26
2022/05/27 13:10:18;;;;;;;13.18;2.92;;;;;;;;;;5071935;28;20045;-27
2022/05/27 13:12:50;;;;;;;20.13;3.40;;;;;;;;;;5075273;28;20569;-26
2022/05/27 13:15:22;;;;;;;21.65;3.38;;;;;;;;;;5073764;28;20128;-27
2022/05/27 13:17:53;;;;;;;13.88;3.47;;;;;;;;;;5066465;28;20379;-26
2022/05/27 13:20:25;;;;;;;16.55;3.45;;;;;;;;;;5065893;28;20044;-25
2022/05/27 13:22:51;;;;;;;15.80;2.90;;;;;;;;;;5066048;28;20079;-26
2022/05/27 13:25:25;;;;;;;22.55;4.07;;;;;;;;;;5062563;28;20040;-26
2022/05/27 13:27:55;;;;;;;13.68;3.28;;;;;;;;;;5053060;28;20076;-26
2022/05/27 13:30:23;;;;;;;16.05;3.20;;;;;;;;;;5052095;28;20512;-25
2022/05/27 13:32:57;;;;;;;22.15;4.22;;;;;;;;;;5051662;28;20048;-25
2022/05/27 13:35:23;;;;;;;17.70;3.67;;;;;;;;;;5052795;28;20041;-25
2022/05/27 13:37:59;;;;;;;14.30;3.28;;;;;;;;;;5052629;28;20047;-26
2022/05/27 13:40:28;;;;;;;17.75;3.95;;;;;;;;;;5052862;28;20075;-25
2022/05/27 13:42:56;;;;;;;11.68;3.13;;;;;;;;;;5053237;28;20040;-25
2022/05/27 13:45:22;;;;;;;12.18;2.78;;;;;;;;;;5052745;28;20083;-25
2022/05/27 13:47:55;;;;;;;18.88;3.63;;;;;;;;;;5053201;28;20048;-25
2022/05/27 13:50:29;;;;;;;15.77;2.83;;;;;;;;;;5056710;28;20041;-25
2022/05/27 13:52:55;;;;;;;21.17;3.33;;;;;;;;;;5056313;28;20445;-26
2022/05/27 13:55:26;;;;;;;26.10;3.42;;;;;;;;;;5056344;28;20435;-26
2022/05/27 13:57:53;;;;;;;12.55;2.38;;;;;;;;;;5056699;28;20478;-26
2022/05/27 14:00:20;;;;;;;12.38;2.30;;;;;;;;;;5058657;28;20563;-26
2022/05/27 14:02:50;;;;;;;13.48;2.95;;;;;;;;;;5055452;28;20123;-26
2022/05/27 14:05:25;;;;;;;16.17;3.75;;;;;;;;;;5057998;28;20510;-25
2022/05/27 14:07:52;;;;;;;17.13;3.45;;;;;;;;;;5056539;28;20418;-25
2022/05/27 14:10:18;;;;;;;14.95;3.00;;;;;;;;;;5056510;28;20049;-25
2022/05/27 14:12:44;;;;;;;11.48;3.90;;;;;;;;;;5057375;28;20049;-25
2022/05/27 14:15:16;;;;;;;13.90;2.40;;;;;;;;;;5056179;28;20045;-25
2022/05/27 14:17:44;;;;;;;11.30;1.95;;;;;;;;;;5060113;28;20412;-26
2022/05/27 14:20:12;;;;;;;14.63;2.50;;;;;;;;;;5057268;28;20052;-25
2022/05/27 14:22:46;;;;;;;13.65;2.72;;;;;;;;;;5056925;28;20045;-25
2022/05/27 14:25:19;;;;;;;9.82;2.47;;;;;;;;;;5055615;28;20041;-25
2022/05/27 14:27:47;;;;;;;13.00;2.63;;;;;;;;;;5057284;28;20071;-26
2022/05/27 14:30:16;;;;;;;15.10;2.65;;;;;;;;;;5056204;28;20045;-26
2022/05/27 14:32:42;;;;;;;11.70;2.10;;;;;;;;;;5056233;28;20411;-25
2022/05/27 14:35:09;;;;;;;10.85;2.65;;;;;;;;;;5065072;28;20406;-25
2022/05/27 14:37:39;;;;;;;13.15;3.45;;;;;;;;;;5061042;28;20076;-26
2022/05/27 14:40:14;;;;;;;14.90;2.85;;;;;;;;;;5055538;28;20383;-26
2022/05/27 14:42:40;;;;;;;12.05;3.10;;;;;;;;;;5056111;28;20051;-25
2022/05/27 14:45:11;;;;;;;18.92;3.00;;;;;;;;;;5056432;28;20044;-25
2022/05/27 14:47:38;;;;;;;17.73;3.97;;;;;;;;;;5056356;28;20048;-26
2022/05/27 14:50:14;;;;;;;19.35;2.80;;;;;;;;;;5056959;28;20045;-25
2022/05/27 14:52:41;;;;;;;16.15;2.60;;;;;;;;;;5056750;28;20049;-25
2022/05/27 14:55:09;;;;;;;17.60;4.00;;;;;;;;;;5056335;28;20033;-25
2022/05/27 14:57:40;;;;;;;12.38;2.30;;;;;;;;;;5055753;28;20049;-25
2022/05/27 15:00:33;;;;;;;14.40;3.13;;;;;;;;;;5054879;28;20102;-26
2022/05/27 15:03:00;;;;;;;15.10;2.58;;;;;;;;;;5062899;28;20131;-25
2022/05/27 15:05:35;;;;;;;15.93;3.55;;;;;;;;;;5060093;28;20143;-26
2022/05/27 15:08:06;;;;;;;20.05;3.53;;;;;;;;;;5055772;28;20461;-25